« Back
NWS Peachtree City, Ga » Text Product » AHN Terminal Aerodrome Forecast


Printer-friendly Version
Current Version              Previous Versions:   1  2  3  4  5  6  7  8  9  

Terminal Aerodrome Forecast

119
FTUS42 KFFC 251141
TAFAHN
TAF
KAHN 251141Z 2512/2612 00000KT P6SM FEW120
     FM251500 26004KT P6SM SCT035
     FM251800 22006KT P6SM VCSH SCT050
      TEMPO 2518/2522 4SM -TSRA BR BKN035CB
     FM260100 23003KT P6SM SCT100=

USA.gov is the U.S. government's official web portal to all federal, state and local government web resources and services.